sensor_id;sensor_type;location;lat;lon;timestamp;P1;durP1;ratioP1;P2;durP2;ratioP2
74369;SDS011;71062;44.520;11.342;2024-02-26T00:01:52;1.55;;;0.50;;
74369;SDS011;71062;44.520;11.342;2024-02-26T00:04:18;2.88;;;0.75;;
74369;SDS011;71062;44.520;11.342;2024-02-26T00:06:43;2.13;;;0.60;;
74369;SDS011;71062;44.520;11.342;2024-02-26T00:09:09;1.58;;;0.65;;
74369;SDS011;71062;44.520;11.342;2024-02-26T00:11:35;1.98;;;0.65;;
74369;SDS011;71062;44.520;11.342;2024-02-26T00:14:02;2.63;;;0.70;;
74369;SDS011;71062;44.520;11.342;2024-02-26T00:16:28;2.35;;;0.65;;
74369;SDS011;71062;44.520;11.342;2024-02-26T00:18:53;1.23;;;0.50;;
74369;SDS011;71062;44.520;11.342;2024-02-26T00:21:19;1.27;;;0.70;;
74369;SDS011;71062;44.520;11.342;2024-02-26T00:23:46;0.77;;;0.38;;
74369;SDS011;71062;44.520;11.342;2024-02-26T00:26:11;2.10;;;0.60;;
74369;SDS011;71062;44.520;11.342;2024-02-26T00:28:37;0.88;;;0.20;;
74369;SDS011;71062;44.520;11.342;2024-02-26T00:31:03;2.03;;;0.50;;
74369;SDS011;71062;44.520;11.342;2024-02-26T00:33:28;1.48;;;0.63;;
74369;SDS011;71062;44.520;11.342;2024-02-26T00:35:54;1.08;;;0.50;;
74369;SDS011;71062;44.520;11.342;2024-02-26T00:38:19;2.38;;;1.45;;
74369;SDS011;71062;44.520;11.342;2024-02-26T00:40:45;4.65;;;0.80;;
74369;SDS011;71062;44.520;11.342;2024-02-26T00:43:11;1.17;;;0.40;;
74369;SDS011;71062;44.520;11.342;2024-02-26T00:45:36;2.08;;;0.60;;
74369;SDS011;71062;44.520;11.342;2024-02-26T00:48:02;1.92;;;0.47;;
74369;SDS011;71062;44.520;11.342;2024-02-26T00:50:36;0.68;;;0.30;;
74369;SDS011;71062;44.520;11.342;2024-02-26T00:53:03;0.95;;;0.40;;
74369;SDS011;71062;44.520;11.342;2024-02-26T00:55:28;1.58;;;0.88;;
74369;SDS011;71062;44.520;11.342;2024-02-26T00:57:54;1.90;;;0.85;;
74369;SDS011;71062;44.520;11.342;2024-02-26T01:00:20;1.92;;;0.60;;
74369;SDS011;71062;44.520;11.342;2024-02-26T01:02:45;1.13;;;0.50;;
74369;SDS011;71062;44.520;11.342;2024-02-26T01:05:14;1.20;;;0.50;;
74369;SDS011;71062;44.520;11.342;2024-02-26T01:07:41;2.70;;;0.90;;
74369;SDS011;71062;44.520;11.342;2024-02-26T01:10:07;1.05;;;0.57;;
74369;SDS011;71062;44.520;11.342;2024-02-26T01:12:33;5.53;;;2.35;;
74369;SDS011;71062;44.520;11.342;2024-02-26T01:14:59;1.70;;;0.65;;
74369;SDS011;71062;44.520;11.342;2024-02-26T01:17:25;3.83;;;0.60;;
74369;SDS011;71062;44.520;11.342;2024-02-26T01:19:50;3.30;;;1.15;;
74369;SDS011;71062;44.520;11.342;2024-02-26T01:22:16;3.47;;;1.30;;
74369;SDS011;71062;44.520;11.342;2024-02-26T01:24:41;4.85;;;1.90;;
74369;SDS011;71062;44.520;11.342;2024-02-26T01:27:07;7.32;;;2.47;;
74369;SDS011;71062;44.520;11.342;2024-02-26T01:29:34;7.93;;;3.42;;
74369;SDS011;71062;44.520;11.342;2024-02-26T01:31:59;7.00;;;3.35;;
74369;SDS011;71062;44.520;11.342;2024-02-26T01:34:25;3.30;;;1.50;;
74369;SDS011;71062;44.520;11.342;2024-02-26T01:36:50;5.90;;;2.10;;
74369;SDS011;71062;44.520;11.342;2024-02-26T01:39:16;3.33;;;1.10;;
74369;SDS011;71062;44.520;11.342;2024-02-26T01:41:41;2.67;;;1.10;;
74369;SDS011;71062;44.520;11.342;2024-02-26T01:44:07;2.38;;;0.75;;
74369;SDS011;71062;44.520;11.342;2024-02-26T01:46:33;2.25;;;0.88;;
74369;SDS011;71062;44.520;11.342;2024-02-26T01:49:02;2.92;;;0.75;;
74369;SDS011;71062;44.520;11.342;2024-02-26T01:51:28;1.40;;;0.60;;
74369;SDS011;71062;44.520;11.342;2024-02-26T01:53:55;4.15;;;0.82;;
74369;SDS011;71062;44.520;11.342;2024-02-26T01:56:22;1.45;;;0.70;;
74369;SDS011;71062;44.520;11.342;2024-02-26T01:58:53;4.20;;;0.80;;
74369;SDS011;71062;44.520;11.342;2024-02-26T02:01:19;3.63;;;0.88;;
74369;SDS011;71062;44.520;11.342;2024-02-26T02:03:47;1.42;;;0.65;;
74369;SDS011;71062;44.520;11.342;2024-02-26T02:06:13;2.72;;;0.68;;
74369;SDS011;71062;44.520;11.342;2024-02-26T02:08:39;3.53;;;0.60;;
74369;SDS011;71062;44.520;11.342;2024-02-26T02:11:05;5.32;;;1.25;;
74369;SDS011;71062;44.520;11.342;2024-02-26T02:13:31;3.05;;;1.17;;
74369;SDS011;71062;44.520;11.342;2024-02-26T02:15:57;3.47;;;1.30;;
74369;SDS011;71062;44.520;11.342;2024-02-26T02:18:22;4.05;;;1.20;;
74369;SDS011;71062;44.520;11.342;2024-02-26T02:20:48;3.88;;;1.55;;
74369;SDS011;71062;44.520;11.342;2024-02-26T02:23:13;9.88;;;1.67;;
74369;SDS011;71062;44.520;11.342;2024-02-26T02:25:39;18.63;;;2.20;;
74369;SDS011;71062;44.520;11.342;2024-02-26T02:28:05;10.63;;;1.63;;
74369;SDS011;71062;44.520;11.342;2024-02-26T02:30:31;7.22;;;1.30;;
74369;SDS011;71062;44.520;11.342;2024-02-26T02:32:58;13.63;;;2.05;;
74369;SDS011;71062;44.520;11.342;2024-02-26T02:35:24;8.13;;;1.60;;
74369;SDS011;71062;44.520;11.342;2024-02-26T02:37:53;3.50;;;1.10;;
74369;SDS011;71062;44.520;11.342;2024-02-26T02:40:20;4.47;;;0.98;;
74369;SDS011;71062;44.520;11.342;2024-02-26T02:42:45;3.30;;;1.08;;
74369;SDS011;71062;44.520;11.342;2024-02-26T02:45:11;5.90;;;1.55;;
74369;SDS011;71062;44.520;11.342;2024-02-26T02:47:36;3.15;;;1.38;;
74369;SDS011;71062;44.520;11.342;2024-02-26T02:50:02;11.93;;;1.92;;
74369;SDS011;71062;44.520;11.342;2024-02-26T02:52:28;7.55;;;1.45;;
74369;SDS011;71062;44.520;11.342;2024-02-26T02:54:54;14.75;;;2.53;;
74369;SDS011;71062;44.520;11.342;2024-02-26T02:57:19;13.43;;;1.98;;
74369;SDS011;71062;44.520;11.342;2024-02-26T02:59:45;7.78;;;1.17;;
74369;SDS011;71062;44.520;11.342;2024-02-26T03:02:11;5.65;;;1.33;;
74369;SDS011;71062;44.520;11.342;2024-02-26T03:04:37;3.33;;;1.08;;
74369;SDS011;71062;44.520;11.342;2024-02-26T03:07:03;3.35;;;1.00;;
74369;SDS011;71062;44.520;11.342;2024-02-26T03:09:28;4.85;;;0.85;;
74369;SDS011;71062;44.520;11.342;2024-02-26T03:11:54;4.80;;;1.08;;
74369;SDS011;71062;44.520;11.342;2024-02-26T03:14:19;4.38;;;1.15;;
74369;SDS011;71062;44.520;11.342;2024-02-26T03:16:45;4.55;;;1.10;;
74369;SDS011;71062;44.520;11.342;2024-02-26T03:19:11;5.20;;;1.15;;
74369;SDS011;71062;44.520;11.342;2024-02-26T03:21:40;4.32;;;0.90;;
74369;SDS011;71062;44.520;11.342;2024-02-26T03:24:06;2.85;;;0.80;;
74369;SDS011;71062;44.520;11.342;2024-02-26T03:26:35;2.75;;;0.82;;
74369;SDS011;71062;44.520;11.342;2024-02-26T03:29:01;5.93;;;1.02;;
74369;SDS011;71062;44.520;11.342;2024-02-26T03:31:27;1.75;;;0.80;;
74369;SDS011;71062;44.520;11.342;2024-02-26T03:33:53;6.13;;;0.80;;
74369;SDS011;71062;44.520;11.342;2024-02-26T03:36:19;2.17;;;0.88;;
74369;SDS011;71062;44.520;11.342;2024-02-26T03:38:45;2.47;;;0.82;;
74369;SDS011;71062;44.520;11.342;2024-02-26T03:41:11;1.95;;;0.70;;
74369;SDS011;71062;44.520;11.342;2024-02-26T03:43:37;10.45;;;2.10;;
74369;SDS011;71062;44.520;11.342;2024-02-26T03:46:02;3.42;;;0.73;;
74369;SDS011;71062;44.520;11.342;2024-02-26T03:48:28;5.75;;;1.50;;
74369;SDS011;71062;44.520;11.342;2024-02-26T03:50:53;3.33;;;1.20;;
74369;SDS011;71062;44.520;11.342;2024-02-26T03:53:19;6.82;;;1.90;;
74369;SDS011;71062;44.520;11.342;2024-02-26T03:55:45;4.90;;;1.60;;
74369;SDS011;71062;44.520;11.342;2024-02-26T03:58:12;5.43;;;1.90;;
74369;SDS011;71062;44.520;11.342;2024-02-26T04:00:38;6.00;;;2.08;;
74369;SDS011;71062;44.520;11.342;2024-02-26T04:03:03;36.60;;;10.75;;
74369;SDS011;71062;44.520;11.342;2024-02-26T04:05:29;20.88;;;5.88;;
74369;SDS011;71062;44.520;11.342;2024-02-26T04:07:58;10.10;;;4.00;;
74369;SDS011;71062;44.520;11.342;2024-02-26T04:10:26;3.15;;;1.00;;
74369;SDS011;71062;44.520;11.342;2024-02-26T04:12:52;10.57;;;3.05;;
74369;SDS011;71062;44.520;11.342;2024-02-26T04:15:17;5.95;;;1.30;;
74369;SDS011;71062;44.520;11.342;2024-02-26T04:17:43;6.97;;;1.95;;
74369;SDS011;71062;44.520;11.342;2024-02-26T04:20:13;3.38;;;1.15;;
74369;SDS011;71062;44.520;11.342;2024-02-26T04:22:41;2.60;;;0.93;;
74369;SDS011;71062;44.520;11.342;2024-02-26T04:25:06;2.80;;;1.17;;
74369;SDS011;71062;44.520;11.342;2024-02-26T04:27:32;7.13;;;1.17;;
74369;SDS011;71062;44.520;11.342;2024-02-26T04:29:58;3.38;;;0.88;;
74369;SDS011;71062;44.520;11.342;2024-02-26T04:32:24;6.18;;;1.42;;
74369;SDS011;71062;44.520;11.342;2024-02-26T04:34:49;2.00;;;0.93;;
74369;SDS011;71062;44.520;11.342;2024-02-26T04:37:15;2.92;;;0.65;;
74369;SDS011;71062;44.520;11.342;2024-02-26T04:39:41;3.72;;;1.50;;
74369;SDS011;71062;44.520;11.342;2024-02-26T04:42:06;1.48;;;0.45;;
74369;SDS011;71062;44.520;11.342;2024-02-26T04:44:32;5.30;;;0.55;;
74369;SDS011;71062;44.520;11.342;2024-02-26T04:46:58;2.85;;;1.00;;
74369;SDS011;71062;44.520;11.342;2024-02-26T04:49:23;3.10;;;0.90;;
74369;SDS011;71062;44.520;11.342;2024-02-26T04:51:49;4.75;;;0.65;;
74369;SDS011;71062;44.520;11.342;2024-02-26T04:54:15;4.50;;;0.80;;
74369;SDS011;71062;44.520;11.342;2024-02-26T04:56:43;2.05;;;0.60;;
74369;SDS011;71062;44.520;11.342;2024-02-26T04:59:09;3.50;;;0.70;;
74369;SDS011;71062;44.520;11.342;2024-02-26T05:01:35;5.68;;;0.75;;
74369;SDS011;71062;44.520;11.342;2024-02-26T05:04:02;3.70;;;1.02;;
74369;SDS011;71062;44.520;11.342;2024-02-26T05:06:28;2.25;;;0.65;;
74369;SDS011;71062;44.520;11.342;2024-02-26T05:08:54;1.17;;;0.55;;
74369;SDS011;71062;44.520;11.342;2024-02-26T05:11:20;9.38;;;2.42;;
74369;SDS011;71062;44.520;11.342;2024-02-26T05:13:47;2.45;;;1.02;;
74369;SDS011;71062;44.520;11.342;2024-02-26T05:21:04;2.65;;;0.93;;
74369;SDS011;71062;44.520;11.342;2024-02-26T05:23:30;5.20;;;1.77;;
74369;SDS011;71062;44.520;11.342;2024-02-26T05:25:56;4.55;;;1.13;;
74369;SDS011;71062;44.520;11.342;2024-02-26T05:28:21;5.25;;;1.75;;
74369;SDS011;71062;44.520;11.342;2024-02-26T05:30:47;2.83;;;1.20;;
74369;SDS011;71062;44.520;11.342;2024-02-26T05:33:13;3.10;;;1.05;;
74369;SDS011;71062;44.520;11.342;2024-02-26T05:35:38;3.97;;;1.60;;
74369;SDS011;71062;44.520;11.342;2024-02-26T05:38:05;5.75;;;1.00;;
74369;SDS011;71062;44.520;11.342;2024-02-26T05:40:31;2.33;;;0.90;;
74369;SDS011;71062;44.520;11.342;2024-02-26T05:42:56;5.78;;;1.15;;
74369;SDS011;71062;44.520;11.342;2024-02-26T05:45:22;4.60;;;1.05;;
74369;SDS011;71062;44.520;11.342;2024-02-26T05:47:48;6.00;;;1.00;;
74369;SDS011;71062;44.520;11.342;2024-02-26T05:50:15;2.97;;;1.10;;
74369;SDS011;71062;44.520;11.342;2024-02-26T05:52:41;3.38;;;0.73;;
74369;SDS011;71062;44.520;11.342;2024-02-26T05:55:08;4.03;;;1.20;;
74369;SDS011;71062;44.520;11.342;2024-02-26T05:57:34;5.97;;;1.30;;
74369;SDS011;71062;44.520;11.342;2024-02-26T06:00:00;3.72;;;1.30;;
74369;SDS011;71062;44.520;11.342;2024-02-26T06:02:31;4.97;;;1.63;;
74369;SDS011;71062;44.520;11.342;2024-02-26T06:04:57;4.57;;;1.48;;
74369;SDS011;71062;44.520;11.342;2024-02-26T06:07:23;5.97;;;1.73;;
74369;SDS011;71062;44.520;11.342;2024-02-26T06:09:49;4.07;;;1.63;;
74369;SDS011;71062;44.520;11.342;2024-02-26T06:12:14;3.35;;;1.40;;
74369;SDS011;71062;44.520;11.342;2024-02-26T06:14:41;8.13;;;1.50;;
74369;SDS011;71062;44.520;11.342;2024-02-26T06:17:08;4.03;;;1.38;;
74369;SDS011;71062;44.520;11.342;2024-02-26T06:19:33;5.20;;;2.25;;
74369;SDS011;71062;44.520;11.342;2024-02-26T06:21:59;5.88;;;2.15;;
74369;SDS011;71062;44.520;11.342;2024-02-26T06:24:25;5.78;;;2.45;;
74369;SDS011;71062;44.520;11.342;2024-02-26T06:26:50;6.68;;;2.42;;
74369;SDS011;71062;44.520;11.342;2024-02-26T06:29:16;9.85;;;2.75;;
74369;SDS011;71062;44.520;11.342;2024-02-26T06:31:42;5.75;;;2.53;;
74369;SDS011;71062;44.520;11.342;2024-02-26T06:34:08;14.20;;;4.22;;
74369;SDS011;71062;44.520;11.342;2024-02-26T06:36:33;6.63;;;3.13;;
74369;SDS011;71062;44.520;11.342;2024-02-26T06:39:00;9.95;;;3.22;;
74369;SDS011;71062;44.520;11.342;2024-02-26T06:41:25;8.55;;;3.83;;
74369;SDS011;71062;44.520;11.342;2024-02-26T06:43:55;6.93;;;2.90;;
74369;SDS011;71062;44.520;11.342;2024-02-26T06:46:22;10.68;;;3.92;;
74369;SDS011;71062;44.520;11.342;2024-02-26T06:48:48;10.55;;;4.00;;
74369;SDS011;71062;44.520;11.342;2024-02-26T06:51:14;9.30;;;3.85;;
74369;SDS011;71062;44.520;11.342;2024-02-26T06:53:40;12.13;;;3.20;;
74369;SDS011;71062;44.520;11.342;2024-02-26T06:56:06;6.38;;;3.20;;
74369;SDS011;71062;44.520;11.342;2024-02-26T06:58:31;8.32;;;3.47;;
74369;SDS011;71062;44.520;11.342;2024-02-26T07:00:57;6.38;;;2.67;;
74369;SDS011;71062;44.520;11.342;2024-02-26T07:03:23;8.63;;;3.15;;
74369;SDS011;71062;44.520;11.342;2024-02-26T07:05:50;10.52;;;3.75;;
74369;SDS011;71062;44.520;11.342;2024-02-26T07:08:16;10.20;;;4.18;;
74369;SDS011;71062;44.520;11.342;2024-02-26T07:10:43;9.05;;;3.95;;
74369;SDS011;71062;44.520;11.342;2024-02-26T07:13:08;8.48;;;3.60;;
74369;SDS011;71062;44.520;11.342;2024-02-26T07:15:34;10.35;;;3.67;;
74369;SDS011;71062;44.520;11.342;2024-02-26T07:18:00;8.90;;;4.00;;
74369;SDS011;71062;44.520;11.342;2024-02-26T07:20:31;7.07;;;3.80;;
74369;SDS011;71062;44.520;11.342;2024-02-26T07:22:56;7.55;;;3.65;;
74369;SDS011;71062;44.520;11.342;2024-02-26T07:25:22;8.60;;;3.05;;
74369;SDS011;71062;44.520;11.342;2024-02-26T07:27:49;8.93;;;3.90;;
74369;SDS011;71062;44.520;11.342;2024-02-26T07:30:15;7.38;;;3.08;;
74369;SDS011;71062;44.520;11.342;2024-02-26T07:32:42;8.13;;;3.75;;
74369;SDS011;71062;44.520;11.342;2024-02-26T07:35:08;7.32;;;3.50;;
74369;SDS011;71062;44.520;11.342;2024-02-26T07:37:34;7.35;;;3.28;;
74369;SDS011;71062;44.520;11.342;2024-02-26T07:39:59;7.38;;;3.30;;
74369;SDS011;71062;44.520;11.342;2024-02-26T07:42:25;9.10;;;3.72;;
74369;SDS011;71062;44.520;11.342;2024-02-26T07:44:51;6.75;;;3.63;;
74369;SDS011;71062;44.520;11.342;2024-02-26T07:47:18;5.80;;;2.17;;
74369;SDS011;71062;44.520;11.342;2024-02-26T07:49:43;5.03;;;2.72;;
74369;SDS011;71062;44.520;11.342;2024-02-26T07:52:09;5.22;;;2.95;;
74369;SDS011;71062;44.520;11.342;2024-02-26T07:54:35;5.50;;;3.08;;
74369;SDS011;71062;44.520;11.342;2024-02-26T07:57:02;7.35;;;3.17;;
74369;SDS011;71062;44.520;11.342;2024-02-26T07:59:30;6.75;;;2.72;;
74369;SDS011;71062;44.520;11.342;2024-02-26T08:01:56;5.40;;;2.70;;
74369;SDS011;71062;44.520;11.342;2024-02-26T08:04:22;7.82;;;3.10;;
74369;SDS011;71062;44.520;11.342;2024-02-26T08:06:47;8.73;;;3.63;;
74369;SDS011;71062;44.520;11.342;2024-02-26T08:09:13;6.47;;;3.13;;
74369;SDS011;71062;44.520;11.342;2024-02-26T08:11:39;6.68;;;3.05;;
74369;SDS011;71062;44.520;11.342;2024-02-26T08:14:04;5.28;;;3.25;;
74369;SDS011;71062;44.520;11.342;2024-02-26T08:16:30;7.53;;;3.10;;
74369;SDS011;71062;44.520;11.342;2024-02-26T08:18:56;7.28;;;3.33;;
74369;SDS011;71062;44.520;11.342;2024-02-26T08:21:21;4.13;;;2.88;;
74369;SDS011;71062;44.520;11.342;2024-02-26T08:23:47;9.77;;;3.55;;
74369;SDS011;71062;44.520;11.342;2024-02-26T08:26:12;7.35;;;3.08;;
74369;SDS011;71062;44.520;11.342;2024-02-26T08:28:38;9.57;;;3.63;;
74369;SDS011;71062;44.520;11.342;2024-02-26T08:31:03;8.45;;;3.55;;
74369;SDS011;71062;44.520;11.342;2024-02-26T08:33:29;9.73;;;3.92;;
74369;SDS011;71062;44.520;11.342;2024-02-26T08:35:55;9.32;;;3.72;;
74369;SDS011;71062;44.520;11.342;2024-02-26T08:38:21;8.00;;;3.38;;
74369;SDS011;71062;44.520;11.342;2024-02-26T08:40:47;11.02;;;3.67;;
74369;SDS011;71062;44.520;11.342;2024-02-26T08:43:13;8.38;;;3.28;;
74369;SDS011;71062;44.520;11.342;2024-02-26T08:45:39;7.88;;;3.00;;
74369;SDS011;71062;44.520;11.342;2024-02-26T08:48:04;7.63;;;3.17;;
74369;SDS011;71062;44.520;11.342;2024-02-26T08:50:30;4.70;;;2.50;;
74369;SDS011;71062;44.520;11.342;2024-02-26T08:52:56;9.02;;;3.00;;
74369;SDS011;71062;44.520;11.342;2024-02-26T08:55:21;6.60;;;2.40;;
74369;SDS011;71062;44.520;11.342;2024-02-26T08:57:47;7.28;;;2.63;;
74369;SDS011;71062;44.520;11.342;2024-02-26T09:00:13;9.30;;;2.80;;
74369;SDS011;71062;44.520;11.342;2024-02-26T09:02:40;8.82;;;2.60;;
74369;SDS011;71062;44.520;11.342;2024-02-26T09:05:08;5.68;;;2.90;;
74369;SDS011;71062;44.520;11.342;2024-02-26T09:07:35;8.80;;;3.17;;
74369;SDS011;71062;44.520;11.342;2024-02-26T09:10:00;4.05;;;2.20;;
74369;SDS011;71062;44.520;11.342;2024-02-26T09:12:26;7.95;;;2.90;;
74369;SDS011;71062;44.520;11.342;2024-02-26T09:14:51;5.85;;;2.33;;
74369;SDS011;71062;44.520;11.342;2024-02-26T09:17:17;4.35;;;2.35;;
74369;SDS011;71062;44.520;11.342;2024-02-26T09:19:42;4.70;;;2.55;;
74369;SDS011;71062;44.520;11.342;2024-02-26T09:22:09;7.07;;;2.92;;
74369;SDS011;71062;44.520;11.342;2024-02-26T09:24:35;6.45;;;3.00;;
74369;SDS011;71062;44.520;11.342;2024-02-26T09:27:01;9.18;;;2.88;;
74369;SDS011;71062;44.520;11.342;2024-02-26T09:29:27;4.75;;;2.15;;
74369;SDS011;71062;44.520;11.342;2024-02-26T09:31:52;4.63;;;2.22;;
74369;SDS011;71062;44.520;11.342;2024-02-26T09:34:18;4.03;;;1.83;;
74369;SDS011;71062;44.520;11.342;2024-02-26T09:36:44;4.55;;;2.10;;
74369;SDS011;71062;44.520;11.342;2024-02-26T09:39:09;7.57;;;2.55;;
74369;SDS011;71062;44.520;11.342;2024-02-26T09:41:37;4.95;;;2.40;;
74369;SDS011;71062;44.520;11.342;2024-02-26T09:44:04;4.20;;;1.90;;
74369;SDS011;71062;44.520;11.342;2024-02-26T09:46:30;5.25;;;1.90;;
74369;SDS011;71062;44.520;11.342;2024-02-26T09:48:57;5.30;;;1.90;;
74369;SDS011;71062;44.520;11.342;2024-02-26T09:51:22;3.05;;;1.77;;
74369;SDS011;71062;44.520;11.342;2024-02-26T09:53:52;3.17;;;1.50;;
74369;SDS011;71062;44.520;11.342;2024-02-26T09:56:18;5.10;;;1.63;;
74369;SDS011;71062;44.520;11.342;2024-02-26T09:58:44;4.10;;;1.67;;
74369;SDS011;71062;44.520;11.342;2024-02-26T10:01:16;6.53;;;2.00;;
74369;SDS011;71062;44.520;11.342;2024-02-26T10:03:43;4.60;;;1.85;;
74369;SDS011;71062;44.520;11.342;2024-02-26T10:06:13;4.38;;;1.88;;
74369;SDS011;71062;44.520;11.342;2024-02-26T10:08:39;3.33;;;1.50;;
74369;SDS011;71062;44.520;11.342;2024-02-26T10:11:08;5.53;;;1.92;;
74369;SDS011;71062;44.520;11.342;2024-02-26T10:13:35;4.10;;;1.55;;
74369;SDS011;71062;44.520;11.342;2024-02-26T10:16:01;5.57;;;2.30;;
74369;SDS011;71062;44.520;11.342;2024-02-26T10:21:13;6.22;;;2.33;;
74369;SDS011;71062;44.520;11.342;2024-02-26T10:23:39;4.82;;;2.00;;
74369;SDS011;71062;44.520;11.342;2024-02-26T10:26:04;3.47;;;1.63;;
74369;SDS011;71062;44.520;11.342;2024-02-26T10:28:30;8.05;;;1.88;;
74369;SDS011;71062;44.520;11.342;2024-02-26T10:30:56;11.27;;;2.25;;
74369;SDS011;71062;44.520;11.342;2024-02-26T10:33:22;5.88;;;1.65;;
74369;SDS011;71062;44.520;11.342;2024-02-26T10:35:47;6.07;;;1.70;;
74369;SDS011;71062;44.520;11.342;2024-02-26T10:38:13;4.78;;;1.85;;
74369;SDS011;71062;44.520;11.342;2024-02-26T10:40:42;8.50;;;2.20;;
74369;SDS011;71062;44.520;11.342;2024-02-26T10:43:08;3.97;;;1.80;;
74369;SDS011;71062;44.520;11.342;2024-02-26T10:45:33;4.32;;;1.92;;
74369;SDS011;71062;44.520;11.342;2024-02-26T10:48:00;6.60;;;1.90;;
74369;SDS011;71062;44.520;11.342;2024-02-26T10:50:26;4.10;;;2.05;;
74369;SDS011;71062;44.520;11.342;2024-02-26T10:52:51;4.10;;;2.17;;
74369;SDS011;71062;44.520;11.342;2024-02-26T10:55:20;5.40;;;2.30;;
74369;SDS011;71062;44.520;11.342;2024-02-26T10:57:47;3.97;;;2.00;;
74369;SDS011;71062;44.520;11.342;2024-02-26T11:00:16;6.63;;;1.90;;
74369;SDS011;71062;44.520;11.342;2024-02-26T11:02:43;4.53;;;1.70;;
74369;SDS011;71062;44.520;11.342;2024-02-26T11:05:10;5.57;;;2.17;;
74369;SDS011;71062;44.520;11.342;2024-02-26T11:07:37;3.78;;;1.98;;
74369;SDS011;71062;44.520;11.342;2024-02-26T11:10:04;3.92;;;2.22;;
74369;SDS011;71062;44.520;11.342;2024-02-26T11:12:32;6.35;;;1.90;;
74369;SDS011;71062;44.520;11.342;2024-02-26T11:15:02;7.72;;;2.00;;
74369;SDS011;71062;44.520;11.342;2024-02-26T11:17:29;5.47;;;2.10;;
74369;SDS011;71062;44.520;11.342;2024-02-26T11:19:57;5.13;;;2.33;;
74369;SDS011;71062;44.520;11.342;2024-02-26T11:22:24;4.90;;;2.03;;
74369;SDS011;71062;44.520;11.342;2024-02-26T11:24:52;3.78;;;2.08;;
74369;SDS011;71062;44.520;11.342;2024-02-26T11:27:21;3.60;;;2.20;;
74369;SDS011;71062;44.520;11.342;2024-02-26T11:29:52;7.13;;;2.85;;
74369;SDS011;71062;44.520;11.342;2024-02-26T11:32:19;6.05;;;2.35;;
74369;SDS011;71062;44.520;11.342;2024-02-26T11:34:45;4.88;;;2.47;;
74369;SDS011;71062;44.520;11.342;2024-02-26T11:37:12;5.97;;;2.78;;
74369;SDS011;71062;44.520;11.342;2024-02-26T11:39:41;7.03;;;2.80;;
74369;SDS011;71062;44.520;11.342;2024-02-26T11:42:10;6.88;;;3.20;;
74369;SDS011;71062;44.520;11.342;2024-02-26T11:44:39;5.13;;;3.00;;
74369;SDS011;71062;44.520;11.342;2024-02-26T11:47:13;5.00;;;3.15;;
74369;SDS011;71062;44.520;11.342;2024-02-26T11:49:43;6.50;;;3.58;;
74369;SDS011;71062;44.520;11.342;2024-02-26T11:52:09;6.50;;;3.72;;
74369;SDS011;71062;44.520;11.342;2024-02-26T11:54:51;10.25;;;4.20;;
74369;SDS011;71062;44.520;11.342;2024-02-26T11:57:22;7.90;;;4.00;;
74369;SDS011;71062;44.520;11.342;2024-02-26T11:59:53;8.90;;;4.50;;
74369;SDS011;71062;44.520;11.342;2024-02-26T12:02:39;8.52;;;3.97;;
74369;SDS011;71062;44.520;11.342;2024-02-26T12:05:12;9.40;;;4.43;;
74369;SDS011;71062;44.520;11.342;2024-02-26T12:07:46;9.10;;;4.40;;
74369;SDS011;71062;44.520;11.342;2024-02-26T12:13:21;9.68;;;5.00;;
74369;SDS011;71062;44.520;11.342;2024-02-26T12:15:55;9.52;;;5.38;;
74369;SDS011;71062;44.520;11.342;2024-02-26T12:18:23;12.57;;;5.30;;
74369;SDS011;71062;44.520;11.342;2024-02-26T12:20:58;9.27;;;5.18;;
74369;SDS011;71062;44.520;11.342;2024-02-26T12:23:26;9.73;;;5.07;;
74369;SDS011;71062;44.520;11.342;2024-02-26T12:25:52;8.73;;;5.25;;
74369;SDS011;71062;44.520;11.342;2024-02-26T12:28:18;11.43;;;5.07;;
74369;SDS011;71062;44.520;11.342;2024-02-26T12:30:43;8.18;;;5.07;;
74369;SDS011;71062;44.520;11.342;2024-02-26T12:33:09;8.88;;;4.93;;
74369;SDS011;71062;44.520;11.342;2024-02-26T12:35:35;9.55;;;4.82;;
74369;SDS011;71062;44.520;11.342;2024-02-26T12:38:01;7.22;;;4.68;;
74369;SDS011;71062;44.520;11.342;2024-02-26T12:40:29;8.25;;;4.95;;
74369;SDS011;71062;44.520;11.342;2024-02-26T12:42:55;11.00;;;4.95;;
74369;SDS011;71062;44.520;11.342;2024-02-26T12:45:21;8.10;;;4.43;;
74369;SDS011;71062;44.520;11.342;2024-02-26T12:47:47;9.63;;;5.22;;
74369;SDS011;71062;44.520;11.342;2024-02-26T12:52:43;8.57;;;5.22;;
74369;SDS011;71062;44.520;11.342;2024-02-26T12:55:11;10.80;;;5.72;;
74369;SDS011;71062;44.520;11.342;2024-02-26T12:57:40;10.73;;;5.18;;
74369;SDS011;71062;44.520;11.342;2024-02-26T13:00:11;9.85;;;5.72;;
74369;SDS011;71062;44.520;11.342;2024-02-26T13:02:40;11.20;;;5.75;;
74369;SDS011;71062;44.520;11.342;2024-02-26T13:05:08;12.18;;;5.57;;
74369;SDS011;71062;44.520;11.342;2024-02-26T13:07:34;7.57;;;5.15;;
74369;SDS011;71062;44.520;11.342;2024-02-26T13:10:06;9.20;;;5.45;;
74369;SDS011;71062;44.520;11.342;2024-02-26T13:12:33;8.68;;;5.43;;
74369;SDS011;71062;44.520;11.342;2024-02-26T13:14:59;8.85;;;5.70;;
74369;SDS011;71062;44.520;11.342;2024-02-26T13:17:26;7.88;;;5.07;;
74369;SDS011;71062;44.520;11.342;2024-02-26T13:19:53;8.32;;;4.93;;
74369;SDS011;71062;44.520;11.342;2024-02-26T13:22:22;7.38;;;4.57;;
74369;SDS011;71062;44.520;11.342;2024-02-26T13:24:55;6.90;;;4.25;;
74369;SDS011;71062;44.520;11.342;2024-02-26T13:27:23;8.63;;;4.80;;
74369;SDS011;71062;44.520;11.342;2024-02-26T13:30:01;8.65;;;4.38;;
74369;SDS011;71062;44.520;11.342;2024-02-26T13:32:33;5.85;;;3.63;;
74369;SDS011;71062;44.520;11.342;2024-02-26T13:35:04;8.90;;;3.85;;
74369;SDS011;71062;44.520;11.342;2024-02-26T13:37:34;7.15;;;4.13;;
74369;SDS011;71062;44.520;11.342;2024-02-26T13:40:04;5.03;;;3.30;;
74369;SDS011;71062;44.520;11.342;2024-02-26T13:42:31;4.63;;;2.97;;
74369;SDS011;71062;44.520;11.342;2024-02-26T13:44:56;4.30;;;2.42;;
74369;SDS011;71062;44.520;11.342;2024-02-26T13:47:22;4.75;;;2.33;;
74369;SDS011;71062;44.520;11.342;2024-02-26T13:49:48;3.85;;;2.45;;
74369;SDS011;71062;44.520;11.342;2024-02-26T13:52:13;3.97;;;2.10;;
74369;SDS011;71062;44.520;11.342;2024-02-26T13:54:39;4.03;;;2.00;;
74369;SDS011;71062;44.520;11.342;2024-02-26T13:57:06;3.35;;;2.00;;
74369;SDS011;71062;44.520;11.342;2024-02-26T13:59:31;2.97;;;1.80;;
74369;SDS011;71062;44.520;11.342;2024-02-26T14:01:57;3.08;;;1.70;;
74369;SDS011;71062;44.520;11.342;2024-02-26T14:04:24;2.38;;;1.55;;
74369;SDS011;71062;44.520;11.342;2024-02-26T14:06:50;3.92;;;1.50;;
74369;SDS011;71062;44.520;11.342;2024-02-26T14:09:16;3.50;;;1.25;;
74369;SDS011;71062;44.520;11.342;2024-02-26T14:11:47;3.65;;;1.40;;
74369;SDS011;71062;44.520;11.342;2024-02-26T14:14:13;2.85;;;1.38;;
74369;SDS011;71062;44.520;11.342;2024-02-26T14:16:40;2.58;;;1.08;;
74369;SDS011;71062;44.520;11.342;2024-02-26T14:19:06;3.72;;;1.23;;
74369;SDS011;71062;44.520;11.342;2024-02-26T14:21:31;3.33;;;1.17;;
74369;SDS011;71062;44.520;11.342;2024-02-26T14:23:57;2.40;;;1.13;;
74369;SDS011;71062;44.520;11.342;2024-02-26T14:26:23;3.28;;;1.33;;
74369;SDS011;71062;44.520;11.342;2024-02-26T14:28:49;5.63;;;1.55;;
74369;SDS011;71062;44.520;11.342;2024-02-26T14:31:18;2.63;;;1.33;;
74369;SDS011;71062;44.520;11.342;2024-02-26T14:33:43;3.35;;;1.55;;
74369;SDS011;71062;44.520;11.342;2024-02-26T14:36:10;3.67;;;1.60;;
74369;SDS011;71062;44.520;11.342;2024-02-26T14:38:36;4.22;;;1.35;;
74369;SDS011;71062;44.520;11.342;2024-02-26T14:41:02;2.00;;;1.20;;
74369;SDS011;71062;44.520;11.342;2024-02-26T14:43:28;2.30;;;1.10;;